Time;durP1;ratioP1;P1;durP2;ratioP2;P2;SDS_P1;SDS_P2;PMS_P1;PMS_P2;Temp;Humidity;BMP_temperature;BMP_pressure;BME280_temperature;BME280_humidity;BME280_pressure;Samples;Min_cycle;Max_cycle;Signal;HPM_P1;HPM_P2
2023/07/04 00:02:22;;;;;;;12.30;6.60;;;;;;;14.60;67.28;100124.57;103921;277;38573;-70
2023/07/04 00:04:56;;;;;;;12.40;6.60;;;;;;;14.63;67.16;100125.27;103871;277;38553;-71
2023/07/04 00:07:31;;;;;;;15.60;6.90;;;;;;;14.66;67.25;100127.56;103897;277;39854;-70
2023/07/04 00:10:06;;;;;;;10.20;6.60;;;;;;;14.69;67.30;100138.95;103907;277;38634;-65
2023/07/04 00:12:43;;;;;;;14.10;6.60;;;;;;;14.74;67.45;100141.00;103792;277;38821;-66
2023/07/04 00:15:22;;;;;;;13.40;6.70;;;;;;;14.79;67.56;100137.67;103909;277;39325;-69
2023/07/04 00:17:58;;;;;;;14.40;7.50;;;;;;;14.86;67.30;100139.35;103836;277;38506;-70
2023/07/04 00:20:37;;;;;;;12.50;7.50;;;;;;;14.91;66.91;100138.17;103911;277;38263;-68
2023/07/04 00:23:18;;;;;;;15.00;7.70;;;;;;;14.92;66.68;100140.05;103884;277;39795;-68
2023/07/04 00:25:53;;;;;;;12.20;8.00;;;;;;;14.94;66.79;100137.66;103932;277;38327;-70
2023/07/04 00:28:30;;;;;;;12.90;7.20;;;;;;;14.96;66.66;100145.05;103885;277;39657;-70
2023/07/04 00:31:04;;;;;;;9.10;6.70;;;;;;;15.00;66.76;100145.60;103888;278;39859;-69
2023/07/04 00:33:39;;;;;;;14.20;7.60;;;;;;;15.02;66.84;100145.63;103882;277;38479;-69
2023/07/04 00:36:17;;;;;;;13.70;7.70;;;;;;;15.04;67.06;100148.88;103791;277;38704;-71
2023/07/04 00:38:56;;;;;;;13.10;7.30;;;;;;;15.08;67.08;100148.25;103933;265;38675;-68
2023/07/04 00:41:33;;;;;;;14.10;7.60;;;;;;;15.11;67.04;100150.66;103851;277;38318;-68
2023/07/04 00:44:23;;;;;;;16.80;7.40;;;;;;;15.14;67.20;100155.46;103866;278;38502;-70
2023/07/04 00:47:06;;;;;;;10.00;6.80;;;;;;;15.17;67.47;100154.53;103714;279;38696;-71
2023/07/04 00:49:43;;;;;;;14.40;7.00;;;;;;;15.22;67.60;100153.71;103844;279;38277;-71
2023/07/04 00:52:23;;;;;;;11.70;6.60;;;;;;;15.26;67.91;100154.50;103826;279;38266;-71
2023/07/04 00:55:00;;;;;;;11.80;7.40;;;;;;;15.31;67.70;100154.36;103824;279;39583;-68
2023/07/04 00:57:41;;;;;;;10.10;7.20;;;;;;;15.35;67.72;100153.44;103772;279;38378;-68
2023/07/04 01:00:18;;;;;;;18.60;7.40;;;;;;;15.37;67.54;100155.05;103784;279;38380;-67
2023/07/04 01:02:59;;;;;;;16.70;7.40;;;;;;;15.39;67.22;100155.64;103761;279;38388;-68
2023/07/04 01:05:42;;;;;;;14.30;7.80;;;;;;;15.42;66.92;100150.56;103803;279;39743;-71
2023/07/04 01:08:19;;;;;;;10.40;6.90;;;;;;;15.44;66.82;100150.59;103764;279;39408;-69
2023/07/04 01:10:53;;;;;;;13.20;7.50;;;;;;;15.46;66.91;100150.13;103869;279;40095;-69
2023/07/04 01:13:35;;;;;;;17.40;7.80;;;;;;;15.47;66.92;100149.00;103677;279;39518;-69
2023/07/04 01:16:12;;;;;;;14.50;7.90;;;;;;;15.47;66.93;100145.31;103825;279;38802;-70
2023/07/04 01:18:51;;;;;;;15.10;7.20;;;;;;;15.47;67.27;100143.04;103827;279;39672;-71
2023/07/04 01:21:34;;;;;;;10.90;6.70;;;;;;;15.49;67.31;100147.83;103810;279;39713;-72
2023/07/04 01:24:22;;;;;;;13.00;7.30;;;;;;;15.51;67.36;100143.65;103813;279;38805;-69
2023/07/04 01:26:56;;;;;;;11.60;7.80;;;;;;;15.53;67.29;100150.59;103795;279;38424;-69
2023/07/04 01:29:31;;;;;;;12.70;8.20;;;;;;;15.52;67.13;100156.09;103854;279;38347;-71
2023/07/04 01:32:08;;;;;;;14.00;7.40;;;;;;;15.50;67.06;100155.84;103794;279;39966;-69
2023/07/04 01:34:42;;;;;;;15.90;7.70;;;;;;;15.49;67.25;100156.46;103826;279;38717;-71
2023/07/04 01:37:18;;;;;;;13.70;6.80;;;;;;;15.49;67.07;100153.81;103844;279;38254;-70
2023/07/04 01:39:54;;;;;;;13.30;6.80;;;;;;;15.50;66.99;100148.98;103872;279;38507;-69
2023/07/04 01:42:32;;;;;;;12.90;7.50;;;;;;;15.53;66.98;100152.70;103796;279;38680;-68
2023/07/04 01:45:09;;;;;;;14.80;7.20;;;;;;;15.56;66.93;100157.94;103737;279;39958;-66
2023/07/04 01:47:50;;;;;;;13.60;7.50;;;;;;;15.58;66.77;100157.34;103839;277;38487;-66
2023/07/04 01:50:25;;;;;;;12.50;7.20;;;;;;;15.59;66.38;100157.77;103846;277;38377;-69
2023/07/04 01:53:04;;;;;;;12.20;7.30;;;;;;;15.60;65.92;100161.96;103816;278;38332;-69
2023/07/04 01:55:40;;;;;;;11.30;7.40;;;;;;;15.62;65.73;100165.88;103854;277;38673;-71
2023/07/04 01:58:17;;;;;;;14.40;7.80;;;;;;;15.65;65.48;100167.98;103843;277;39409;-69
2023/07/04 02:00:50;;;;;;;16.60;7.50;;;;;;;15.69;65.35;100170.33;103914;277;39810;-69
2023/07/04 02:03:26;;;;;;;11.70;7.10;;;;;;;15.75;65.06;100166.29;103829;277;38287;-70
2023/07/04 02:06:03;;;;;;;13.40;7.50;;;;;;;15.80;64.79;100165.60;103859;277;38510;-70
2023/07/04 02:08:41;;;;;;;11.70;6.70;;;;;;;15.83;64.39;100162.23;103840;277;38532;-69
2023/07/04 02:11:14;;;;;;;;;;;;;;;15.88;63.85;100162.30;103870;277;38551;-69
2023/07/04 02:13:48;;;;;;;13.90;7.60;;;;;;;15.87;63.52;100160.81;103879;277;39701;-69
2023/07/04 02:16:22;;;;;;;13.70;6.90;;;;;;;15.89;63.15;100166.10;103861;278;38811;-69
2023/07/04 02:19:03;;;;;;;12.70;6.90;;;;;;;15.91;62.99;100165.98;103824;278;38913;-69
2023/07/04 02:21:43;;;;;;;13.00;6.70;;;;;;;15.92;62.99;100161.02;103822;277;38398;-70
2023/07/04 02:24:17;;;;;;;17.40;7.90;;;;;;;15.92;62.49;100158.53;103884;277;39966;-71
2023/07/04 02:26:51;;;;;;;14.00;7.50;;;;;;;15.92;62.20;100159.02;103851;277;38599;-69
2023/07/04 02:29:26;;;;;;;13.30;7.30;;;;;;;15.92;62.36;100157.63;103866;277;38651;-70
2023/07/04 02:32:01;;;;;;;16.20;7.40;;;;;;;15.91;62.27;100158.42;103816;265;38307;-69
2023/07/04 02:34:35;;;;;;;11.40;7.10;;;;;;;15.89;62.25;100158.89;103842;277;39703;-69
2023/07/04 02:37:11;;;;;;;13.90;7.30;;;;;;;15.87;62.03;100156.73;103816;277;39687;-71
2023/07/04 02:39:46;;;;;;;10.60;6.30;;;;;;;15.86;62.14;100163.13;103866;277;39411;-68
2023/07/04 02:42:23;;;;;;;11.50;7.00;;;;;;;15.84;62.10;100160.42;103863;277;38487;-68
2023/07/04 02:45:03;;;;;;;10.90;7.30;;;;;;;15.83;62.33;100161.22;103828;277;38849;-69
2023/07/04 02:47:47;;;;;;;14.00;7.20;;;;;;;15.79;62.43;100164.64;103900;277;39300;-68
2023/07/04 02:50:24;;;;;;;13.00;7.00;;;;;;;15.74;62.62;100163.02;103891;277;38227;-72
2023/07/04 02:52:59;;;;;;;12.40;7.30;;;;;;;15.70;62.79;100167.52;103707;277;174618;-69
2023/07/04 02:55:33;;;;;;;12.90;8.20;;;;;;;15.65;62.91;100164.80;103894;277;38227;-70
2023/07/04 02:58:07;;;;;;;13.60;7.80;;;;;;;15.62;62.92;100165.33;103811;277;38754;-70
2023/07/04 03:00:42;;;;;;;13.50;7.60;;;;;;;15.58;62.95;100169.45;103830;277;38514;-68
2023/07/04 03:03:16;;;;;;;12.40;7.50;;;;;;;15.52;62.97;100168.39;103825;277;38957;-69
2023/07/04 03:05:50;;;;;;;13.20;7.20;;;;;;;15.48;63.05;100170.91;103811;277;38289;-71
2023/07/04 03:08:27;;;;;;;18.10;8.10;;;;;;;15.46;63.22;100171.55;103806;277;39127;-71
2023/07/04 03:11:01;;;;;;;15.10;7.70;;;;;;;15.47;63.31;100174.35;103810;278;39466;-70
2023/07/04 03:13:38;;;;;;;11.50;7.20;;;;;;;15.49;63.80;100169.06;103838;277;39667;-68
2023/07/04 03:16:16;;;;;;;13.50;8.30;;;;;;;15.58;64.10;100172.61;103827;277;38725;-70
2023/07/04 03:18:53;;;;;;;12.70;7.20;;;;;;;15.67;64.19;100171.34;103868;278;38480;-70
2023/07/04 03:21:27;;;;;;;14.60;7.80;;;;;;;15.74;64.35;100170.60;103873;277;38635;-70
2023/07/04 03:24:00;;;;;;;19.60;7.70;;;;;;;15.77;64.09;100181.28;103930;277;38368;-71
2023/07/04 03:26:35;;;;;;;13.40;7.50;;;;;;;15.79;64.05;100185.73;103861;277;38245;-70
2023/07/04 03:29:09;;;;;;;13.40;7.50;;;;;;;15.78;64.39;100186.86;103846;277;40099;-71
2023/07/04 03:31:44;;;;;;;13.60;7.00;;;;;;;15.82;64.57;100187.69;103860;277;39634;-71
2023/07/04 03:34:20;;;;;;;14.70;6.90;;;;;;;15.89;64.81;100188.12;103862;278;39471;-68
2023/07/04 03:37:04;;;;;;;13.40;7.70;;;;;;;15.97;64.97;100185.12;103823;277;39502;-66
2023/07/04 03:39:40;;;;;;;13.70;7.70;;;;;;;16.05;64.90;100184.42;103774;277;39505;-69
2023/07/04 03:42:15;;;;;;;15.50;7.30;;;;;;;16.16;65.55;100187.47;103461;278;476175;-69
2023/07/04 03:44:49;;;;;;;13.50;7.70;;;;;;;16.44;64.88;100177.15;103825;277;39511;-69
2023/07/04 03:47:23;;;;;;;12.80;7.20;;;;;;;16.53;64.43;100171.47;103667;280;38539;-69
2023/07/04 03:49:57;;;;;;;12.40;7.90;;;;;;;16.57;64.13;100179.52;103761;279;38274;-67
2023/07/04 03:52:38;;;;;;;14.30;8.20;;;;;;;16.60;64.01;100179.84;103747;279;38451;-66
2023/07/04 03:55:13;;;;;;;11.50;7.30;;;;;;;16.62;63.90;100177.25;103743;279;39602;-69
2023/07/04 03:57:51;;;;;;;12.70;7.80;;;;;;;16.67;64.18;100177.08;103787;279;38586;-70
2023/07/04 04:00:32;;;;;;;15.80;7.60;;;;;;;16.68;64.31;100180.30;103711;279;39792;-67
2023/07/04 04:03:08;;;;;;;12.60;7.30;;;;;;;16.75;64.86;100176.75;103736;279;39651;-68
2023/07/04 04:05:45;;;;;;;11.40;6.90;;;;;;;17.02;66.45;100171.75;103756;279;38982;-68
2023/07/04 04:08:19;;;;;;;13.80;7.60;;;;;;;18.03;67.25;100170.83;103727;279;39049;-69
2023/07/04 04:10:53;;;;;;;12.90;6.80;;;;;;;18.80;63.36;100159.87;103821;279;39653;-71
2023/07/04 04:13:29;;;;;;;11.90;7.10;;;;;;;18.85;60.55;100164.35;103800;279;38382;-71
2023/07/04 04:16:03;;;;;;;12.30;7.30;;;;;;;18.73;59.84;100171.41;103764;279;39899;-71
2023/07/04 04:18:39;;;;;;;11.70;6.80;;;;;;;19.04;60.59;100168.83;103802;279;39830;-70
2023/07/04 04:21:16;;;;;;;11.90;7.30;;;;;;;19.88;60.00;100166.55;103686;279;38225;-71
2023/07/04 04:23:52;;;;;;;10.70;6.70;;;;;;;20.67;58.33;100165.04;103647;279;174385;-68
2023/07/04 04:26:39;;;;;;;10.00;6.60;;;;;;;21.53;55.88;100165.89;103649;279;38494;-66
2023/07/04 04:29:19;;;;;;;10.20;6.60;;;;;;;21.89;53.41;100173.96;103704;279;38503;-69
2023/07/04 04:31:57;;;;;;;12.20;6.90;;;;;;;21.90;51.79;100176.48;103687;279;38292;-69
2023/07/04 04:34:31;;;;;;;12.80;7.30;;;;;;;21.81;51.02;100175.02;103734;268;38661;-69
2023/07/04 04:37:05;;;;;;;10.30;6.40;;;;;;;21.73;50.76;100181.23;103688;279;38856;-70
2023/07/04 04:39:43;;;;;;;14.30;6.90;;;;;;;21.58;50.40;100185.05;103746;279;38265;-69
2023/07/04 04:42:17;;;;;;;;;;;;;;;21.46;50.38;100190.52;103708;280;38505;-70
2023/07/04 04:44:53;;;;;;;12.40;6.60;;;;;;;21.36;50.32;100195.46;103844;279;39568;-69
2023/07/04 04:47:32;;;;;;;13.00;6.90;;;;;;;21.31;50.60;100198.89;103826;278;39703;-69
2023/07/04 04:50:11;;;;;;;10.50;6.30;;;;;;;21.27;50.63;100201.37;103820;278;38227;-67
2023/07/04 04:52:53;;;;;;;11.60;7.00;;;;;;;21.21;50.67;100205.36;103889;278;38502;-68
2023/07/04 04:55:37;;;;;;;12.00;6.70;;;;;;;21.29;51.03;100206.11;103843;278;38637;-68
2023/07/04 04:58:17;;;;;;;13.90;7.00;;;;;;;21.28;50.41;100204.82;103876;278;38807;-68
2023/07/04 05:00:55;;;;;;;15.70;6.60;;;;;;;21.19;50.30;100206.45;103854;267;38243;-68
2023/07/04 05:03:32;;;;;;;13.50;6.90;;;;;;;21.09;50.23;100209.02;103851;278;38366;-68
2023/07/04 05:06:06;;;;;;;12.60;6.40;;;;;;;21.05;50.42;100208.90;103796;278;38359;-71
2023/07/04 05:08:40;;;;;;;13.40;7.10;;;;;;;20.99;50.20;100214.13;103272;267;896458;-70
2023/07/04 05:11:15;;;;;;;10.70;6.30;;;;;;;20.91;50.45;100214.81;103824;278;38637;-71
2023/07/04 05:13:49;;;;;;;12.20;6.50;;;;;;;21.20;51.56;100221.11;103851;278;38579;-71
2023/07/04 05:16:24;;;;;;;12.30;6.80;;;;;;;21.38;50.26;100222.58;103838;278;39086;-66
2023/07/04 05:19:02;;;;;;;15.30;6.50;;;;;;;21.36;49.88;100229.54;103801;278;38758;-68
2023/07/04 05:21:39;;;;;;;11.10;6.60;;;;;;;21.57;51.26;100229.86;103818;278;38730;-67
2023/07/04 05:24:14;;;;;;;12.90;6.70;;;;;;;22.75;51.78;100228.85;103796;278;38652;-69
2023/07/04 05:26:48;;;;;;;13.40;6.60;;;;;;;24.14;48.99;100224.95;103798;278;38293;-71
2023/07/04 05:29:24;;;;;;;12.60;6.10;;;;;;;25.01;45.10;100226.41;103850;278;40462;-71
2023/07/04 05:31:58;;;;;;;11.10;6.20;;;;;;;25.13;43.24;100228.06;103837;278;38500;-71
2023/07/04 05:34:36;;;;;;;12.30;6.50;;;;;;;24.84;43.12;100232.39;103844;278;39669;-68
2023/07/04 05:37:21;;;;;;;12.50;6.60;;;;;;;25.24;43.30;100233.23;103805;278;39413;-69
2023/07/04 05:40:00;;;;;;;8.40;5.90;;;;;;;26.22;42.44;100234.80;103739;278;39377;-68
2023/07/04 05:42:40;;;;;;;11.90;6.30;;;;;;;26.78;39.54;100235.19;103895;278;38573;-69
2023/07/04 05:45:39;;;;;;;10.80;6.00;;;;;;;27.03;38.26;100238.65;103841;278;39001;-69
2023/07/04 05:48:17;;;;;;;9.00;5.40;;;;;;;27.29;37.93;100238.27;103828;278;38256;-68
2023/07/04 05:50:59;;;;;;;10.00;5.70;;;;;;;27.64;37.55;100237.10;103893;277;38288;-70
2023/07/04 05:53:35;;;;;;;9.60;5.30;;;;;;;28.11;36.51;100234.64;103879;269;38677;-69
2023/07/04 05:56:12;;;;;;;10.40;5.90;;;;;;;28.88;36.03;100235.08;103832;277;39628;-70
2023/07/04 05:58:51;;;;;;;8.00;5.40;;;;;;;29.65;34.38;100232.76;103818;278;38465;-69
2023/07/04 06:01:32;;;;;;;8.20;5.20;;;;;;;30.26;32.70;100237.37;103861;277;38252;-69
2023/07/04 06:04:09;;;;;;;10.50;5.50;;;;;;;31.02;31.54;100234.65;103842;277;38470;-70
2023/07/04 06:06:45;;;;;;;9.70;5.60;;;;;;;31.58;30.76;100231.84;103832;277;38273;-71
2023/07/04 06:09:23;;;;;;;8.50;5.30;;;;;;;31.99;30.06;100233.54;103889;277;39807;-68
2023/07/04 06:12:00;;;;;;;8.90;5.50;;;;;;;32.38;28.86;100234.63;103829;277;39650;-68
2023/07/04 06:14:37;;;;;;;8.90;5.40;;;;;;;32.79;28.82;100230.02;103914;277;39723;-70
2023/07/04 06:17:11;;;;;;;10.10;5.00;;;;;;;33.22;27.02;100234.06;103839;277;38714;-71
2023/07/04 06:19:49;;;;;;;8.40;5.30;;;;;;;33.53;26.45;100233.27;103847;277;40166;-69
2023/07/04 06:22:25;;;;;;;7.90;4.90;;;;;;;33.90;26.20;100238.70;103854;277;38616;-69
2023/07/04 06:25:02;;;;;;;8.40;4.70;;;;;;;34.37;25.44;100236.76;103909;277;38300;-68
2023/07/04 06:27:41;;;;;;;6.90;4.00;;;;;;;34.70;24.55;100232.66;103868;277;38533;-67
2023/07/04 06:30:16;;;;;;;9.80;4.90;;;;;;;34.80;24.40;100232.79;103907;277;39484;-70
2023/07/04 06:32:51;;;;;;;9.10;4.40;;;;;;;35.08;23.78;100235.37;103866;277;38269;-70
2023/07/04 06:35:30;;;;;;;10.20;4.90;;;;;;;35.44;23.69;100234.59;103912;278;38292;-70
2023/07/04 06:38:04;;;;;;;7.60;4.80;;;;;;;35.68;23.01;100232.55;103857;277;38262;-71
2023/07/04 06:40:38;;;;;;;8.20;4.80;;;;;;;35.98;22.56;100229.73;103833;277;38889;-69
2023/07/04 06:43:17;;;;;;;7.90;4.60;;;;;;;36.24;22.13;100234.14;103855;277;38430;-68
2023/07/04 06:45:52;;;;;;;8.80;4.70;;;;;;;36.56;22.29;100237.07;103828;277;38600;-71
2023/07/04 06:48:28;;;;;;;11.80;4.80;;;;;;;36.72;22.02;100239.23;103831;277;38816;-71
2023/07/04 06:51:05;;;;;;;8.70;4.40;;;;;;;36.75;21.55;100237.52;103825;277;40039;-68
2023/07/04 06:53:40;;;;;;;9.70;4.50;;;;;;;36.92;21.51;100233.83;103852;277;40064;-75
2023/07/04 06:56:26;;;;;;;8.20;4.80;;;;;;;36.90;21.49;100237.75;103192;277;884804;-68
2023/07/04 06:59:06;;;;;;;7.80;3.50;;;;;;;37.18;21.82;100238.95;103842;277;38311;-68
2023/07/04 07:01:42;;;;;;;6.60;3.90;;;;;;;37.45;20.90;100240.20;103890;278;39689;-68
2023/07/04 07:04:17;;;;;;;6.50;3.60;;;;;;;37.63;19.97;100242.04;103867;278;39563;-69
2023/07/04 07:06:51;;;;;;;8.10;4.30;;;;;;;37.75;20.02;100241.96;103817;277;38391;-69
2023/07/04 07:09:40;;;;;;;5.70;3.80;;;;;;;37.98;20.10;100245.05;103833;277;38918;-68
2023/07/04 07:12:19;;;;;;;7.20;4.00;;;;;;;38.05;20.29;100245.95;103878;277;38510;-67
2023/07/04 07:15:01;;;;;;;6.70;3.40;;;;;;;38.11;19.60;100245.79;103844;277;38558;-69
2023/07/04 07:17:49;;;;;;;6.90;3.60;;;;;;;38.11;19.34;100246.09;103851;275;38509;-69
2023/07/04 07:20:32;;;;;;;6.10;3.30;;;;;;;38.17;18.99;100245.11;103877;277;38808;-68
2023/07/04 07:23:11;;;;;;;7.00;3.30;;;;;;;38.19;19.07;100244.86;103843;277;38685;-68
2023/07/04 07:25:56;;;;;;;7.20;3.70;;;;;;;38.22;18.65;100241.93;103899;277;38570;-69
2023/07/04 07:28:34;;;;;;;5.40;3.70;;;;;;;38.37;18.63;100239.79;103718;278;172843;-69
2023/07/04 07:31:09;;;;;;;6.40;3.20;;;;;;;38.67;18.43;100244.88;103859;277;39398;-69
2023/07/04 07:33:45;;;;;;;6.30;3.30;;;;;;;38.81;17.45;100245.54;103781;278;41458;-70
2023/07/04 07:36:21;;;;;;;6.00;3.50;;;;;;;38.87;17.75;100241.98;103819;277;40149;-72
2023/07/04 07:38:56;;;;;;;7.20;3.80;;;;;;;38.72;17.87;100237.65;103843;277;39306;-71
2023/07/04 07:41:32;;;;;;;6.80;3.50;;;;;;;38.71;17.68;100234.66;103840;277;38992;-72
2023/07/04 07:44:06;;;;;;;6.90;3.40;;;;;;;38.92;17.90;100237.69;103910;278;38084;-69
2023/07/04 07:46:44;;;;;;;8.10;3.70;;;;;;;39.13;18.05;100227.30;103859;277;38367;-69
2023/07/04 07:49:21;;;;;;;7.00;3.50;;;;;;;39.32;17.70;100230.18;103876;277;38277;-68
2023/07/04 07:51:58;;;;;;;5.30;3.70;;;;;;;39.39;16.82;100226.19;103840;277;38536;-68
2023/07/04 07:54:38;;;;;;;6.30;3.50;;;;;;;39.55;17.07;100227.98;103901;278;38538;-69
2023/07/04 07:57:17;;;;;;;6.20;3.40;;;;;;;39.74;16.61;100228.11;103864;277;38724;-69
2023/07/04 07:59:53;;;;;;;6.80;4.10;;;;;;;39.80;16.57;100223.15;103886;277;38600;-71
2023/07/04 08:02:27;;;;;;;7.20;4.30;;;;;;;39.93;16.41;100220.31;103936;277;38270;-71
2023/07/04 08:05:02;;;;;;;6.40;4.10;;;;;;;40.02;16.46;100220.02;103915;277;38235;-69
2023/07/04 08:07:45;;;;;;;8.30;4.90;;;;;;;40.08;16.54;100217.71;103896;277;39632;-68
2023/07/04 08:10:23;;;;;;;6.90;5.40;;;;;;;40.27;16.00;100223.52;103864;277;38358;-71
2023/07/04 08:12:57;;;;;;;6.00;5.10;;;;;;;40.38;15.25;100215.63;103886;277;39703;-72
2023/07/04 08:15:31;;;;;;;6.00;4.70;;;;;;;40.32;15.12;100210.25;103911;277;38739;-71
2023/07/04 08:18:09;;;;;;;11.00;5.10;;;;;;;40.28;15.69;100213.11;103844;278;39261;-71
2023/07/04 08:20:57;;;;;;;6.60;5.30;;;;;;;40.46;15.58;100213.13;103929;277;39346;-68
2023/07/04 08:23:38;;;;;;;8.80;5.40;;;;;;;40.63;15.40;100210.91;103853;277;38836;-70
2023/07/04 08:26:18;;;;;;;5.60;5.00;;;;;;;40.64;15.18;100210.20;103806;277;38778;-69
2023/07/04 08:28:54;;;;;;;6.80;5.00;;;;;;;40.70;15.15;100210.19;103857;277;39916;-71
2023/07/04 08:31:28;;;;;;;5.50;4.80;;;;;;;40.74;15.22;100211.00;103812;277;38241;-71
2023/07/04 08:34:02;;;;;;;5.80;5.20;;;;;;;40.81;14.84;100212.75;103893;277;38630;-71
2023/07/04 08:36:37;;;;;;;6.00;4.60;;;;;;;40.78;15.52;100215.90;103872;277;38437;-71
2023/07/04 08:39:11;;;;;;;6.40;4.50;;;;;;;40.95;15.35;100211.52;103881;277;40070;-71
2023/07/04 08:41:52;;;;;;;6.60;4.60;;;;;;;41.00;14.83;100212.17;103906;277;38277;-72
2023/07/04 08:44:30;;;;;;;7.10;4.60;;;;;;;41.13;14.94;100206.55;103869;266;39409;-69
2023/07/04 08:47:05;;;;;;;6.90;4.50;;;;;;;41.23;14.88;100209.63;103883;277;38741;-69
2023/07/04 08:49:43;;;;;;;5.40;4.30;;;;;;;41.22;14.61;100208.41;103908;277;39137;-69
2023/07/04 08:52:27;;;;;;;6.40;4.30;;;;;;;41.26;14.73;100208.43;99523;278;3011258;-69
2023/07/04 08:55:07;;;;;;;10.20;4.70;;;;;;;41.20;14.38;100201.33;103710;277;39697;-69
2023/07/04 08:57:44;;;;;;;;;;;;;;;41.25;14.56;100204.70;103857;277;38396;-69
2023/07/04 09:00:29;;;;;;;5.30;3.80;;;;;;;41.16;14.64;100205.31;103835;277;38267;-71
2023/07/04 09:03:18;;;;;;;5.20;4.00;;;;;;;41.19;14.55;100205.11;103858;277;38295;-71
2023/07/04 09:06:03;;;;;;;6.10;3.90;;;;;;;41.20;14.72;100204.27;103933;277;38592;-72
2023/07/04 09:08:53;;;;;;;7.20;3.90;;;;;;;41.23;14.52;100200.41;103860;277;38303;-70
2023/07/04 09:11:30;;;;;;;7.60;4.00;;;;;;;41.12;14.41;100193.14;103844;277;38399;-69
2023/07/04 09:14:10;;;;;;;6.20;3.70;;;;;;;40.96;14.92;100192.30;103849;277;39584;-70
2023/07/04 09:16:47;;;;;;;5.90;3.80;;;;;;;40.68;15.42;100202.45;103817;277;38949;-71
2023/07/04 09:19:21;;;;;;;;;;;;;;;40.33;15.44;100197.13;103884;277;38472;-70
2023/07/04 09:21:56;;;;;;;6.10;3.70;;;;;;;39.88;15.77;100191.25;103736;277;39856;-71
2023/07/04 09:24:34;;;;;;;6.20;3.60;;;;;;;39.55;16.63;100194.92;103812;277;39668;-68
2023/07/04 09:27:08;;;;;;;;;;;;;;;39.21;16.54;100190.10;103883;277;38471;-67
2023/07/04 09:29:47;;;;;;;5.40;3.80;;;;;;;38.72;16.70;100193.77;103815;277;39426;-67
2023/07/04 09:32:21;;;;;;;6.40;4.20;;;;;;;38.23;17.12;100185.92;103844;277;38513;-68
2023/07/04 09:35:00;;;;;;;6.90;4.00;;;;;;;37.84;17.49;100180.88;103831;278;38301;-71
2023/07/04 09:37:34;;;;;;;7.40;3.70;;;;;;;37.37;17.91;100178.86;103906;277;40099;-71
2023/07/04 09:40:11;;;;;;;10.30;4.90;;;;;;;37.09;18.38;100179.69;103947;277;38256;-70
2023/07/04 09:42:47;;;;;;;8.70;4.10;;;;;;;36.78;18.95;100176.23;103755;278;38272;-70
2023/07/04 09:45:29;;;;;;;7.30;3.50;;;;;;;36.50;19.20;100179.50;103861;277;39423;-68
2023/07/04 09:48:06;;;;;;;8.50;4.30;;;;;;;36.35;19.09;100177.52;103830;277;38648;-68
2023/07/04 09:50:42;;;;;;;5.10;3.70;;;;;;;36.24;19.07;100179.64;103868;277;39622;-69
2023/07/04 09:53:22;;;;;;;9.50;3.70;;;;;;;36.00;18.66;100177.58;103845;277;38420;-70
2023/07/04 09:56:06;;;;;;;8.40;4.20;;;;;;;35.73;19.71;100180.08;103904;278;38439;-67
2023/07/04 09:58:44;;;;;;;9.50;3.90;;;;;;;35.63;20.09;100180.20;103839;277;38502;-68
2023/07/04 10:01:21;;;;;;;6.10;3.70;;;;;;;35.49;20.01;100179.71;103811;277;39391;-68
2023/07/04 10:03:55;;;;;;;7.10;3.50;;;;;;;35.39;20.71;100184.56;103824;277;38431;-70
2023/07/04 10:06:36;;;;;;;7.40;3.70;;;;;;;35.32;20.43;100185.27;103868;277;38803;-71
2023/07/04 10:09:19;;;;;;;9.50;4.10;;;;;;;35.23;20.06;100185.23;103891;277;38441;-70
2023/07/04 10:11:54;;;;;;;6.30;3.80;;;;;;;35.07;20.09;100181.87;103801;277;175883;-72
2023/07/04 10:14:37;;;;;;;6.50;4.10;;;;;;;34.87;19.89;100178.55;103900;277;39409;-70
2023/07/04 10:17:18;;;;;;;6.60;3.70;;;;;;;34.74;20.45;100173.45;103898;277;39634;-70
2023/07/04 10:19:59;;;;;;;6.10;3.70;;;;;;;34.57;20.57;100183.23;103934;278;38517;-68
2023/07/04 10:22:42;;;;;;;6.80;3.90;;;;;;;34.42;20.92;100183.91;103790;277;39037;-66
2023/07/04 10:25:17;;;;;;;7.90;4.10;;;;;;;34.32;20.92;100183.83;103853;277;39133;-69
2023/07/04 10:27:58;;;;;;;5.90;3.50;;;;;;;34.33;20.92;100183.39;103800;277;38756;-68
2023/07/04 10:30:35;;;;;;;8.30;4.20;;;;;;;34.19;20.20;100180.60;103860;277;40093;-68
2023/07/04 10:33:21;;;;;;;8.80;4.40;;;;;;;34.04;20.63;100178.01;103831;277;39405;-68
2023/07/04 10:36:05;;;;;;;11.50;4.60;;;;;;;33.88;20.73;100168.66;103825;277;38471;-68
2023/07/04 10:38:45;;;;;;;6.70;4.00;;;;;;;33.75;21.47;100163.70;103853;277;38493;-69
2023/07/04 10:41:24;;;;;;;9.30;4.50;;;;;;;33.70;21.57;100166.34;103842;278;38914;-69
2023/07/04 10:44:05;;;;;;;7.30;4.60;;;;;;;33.67;21.53;100163.35;103879;277;39416;-68
2023/07/04 10:46:45;;;;;;;14.40;5.00;;;;;;;33.64;21.63;100163.05;103866;278;38659;-67
2023/07/04 10:49:28;;;;;;;9.00;4.40;;;;;;;33.52;21.58;100168.91;103871;277;40112;-68
2023/07/04 10:52:06;;;;;;;9.80;4.00;;;;;;;33.46;21.85;100161.38;103834;277;39927;-68
2023/07/04 10:54:48;;;;;;;9.20;4.00;;;;;;;33.44;21.93;100164.89;103859;277;38912;-68
2023/07/04 10:57:32;;;;;;;8.10;4.30;;;;;;;33.43;22.00;100173.38;103813;277;38616;-68
2023/07/04 11:00:14;;;;;;;8.90;5.20;;;;;;;33.37;21.86;100171.84;103898;277;38710;-67
2023/07/04 11:02:55;;;;;;;9.70;5.40;;;;;;;33.29;21.61;100173.60;103897;277;38472;-67
2023/07/04 11:05:38;;;;;;;10.00;5.10;;;;;;;33.23;21.91;100171.61;103868;277;38283;-68
2023/07/04 11:08:18;;;;;;;5.80;4.70;;;;;;;33.18;21.58;100166.85;103865;277;39418;-68
2023/07/04 11:11:00;;;;;;;7.60;4.90;;;;;;;33.09;21.76;100161.91;103902;277;38482;-67
2023/07/04 11:13:34;;;;;;;8.80;5.10;;;;;;;33.01;22.22;100167.52;103853;277;38352;-69
2023/07/04 11:16:08;;;;;;;10.00;4.90;;;;;;;32.97;22.56;100156.75;103847;277;38470;-71
2023/07/04 11:18:59;;;;;;;8.10;5.00;;;;;;;32.90;22.48;100154.95;103872;277;38269;-65
2023/07/04 11:21:33;;;;;;;7.10;4.60;;;;;;;32.82;22.41;100151.55;103808;277;38307;-67
2023/07/04 11:24:19;;;;;;;6.50;4.30;;;;;;;32.76;22.73;100150.84;103856;277;38471;-68
2023/07/04 11:27:05;;;;;;;7.70;4.60;;;;;;;32.74;23.13;100150.84;103760;278;41751;-67
2023/07/04 11:29:53;;;;;;;8.90;5.20;;;;;;;32.66;22.61;100150.27;103839;277;38828;-70
2023/07/04 11:32:28;;;;;;;;;;;;;;;32.61;22.51;100149.14;103874;277;39239;-70
2023/07/04 11:35:17;;;;;;;8.90;5.10;;;;;;;32.51;22.87;100145.50;103884;277;38231;-70
2023/07/04 11:38:05;;;;;;;5.70;4.60;;;;;;;32.44;23.18;100149.20;103866;277;38370;-70
2023/07/04 11:40:50;;;;;;;7.10;4.80;;;;;;;32.43;23.06;100149.08;103803;277;38269;-70
2023/07/04 11:43:33;;;;;;;7.60;4.70;;;;;;;32.44;23.39;100144.65;103515;277;38868;-70
2023/07/04 11:46:21;;;;;;;7.40;4.60;;;;;;;32.41;23.25;100136.11;103847;278;38837;-67
2023/07/04 11:48:59;;;;;;;10.20;5.00;;;;;;;32.33;23.26;100143.23;103864;277;39379;-68
2023/07/04 11:51:40;;;;;;;9.10;4.80;;;;;;;32.25;22.69;100151.09;103874;277;39625;-68
2023/07/04 11:54:18;;;;;;;7.70;5.00;;;;;;;32.08;22.25;100147.09;103936;278;39475;-68
2023/07/04 11:56:55;;;;;;;12.50;5.20;;;;;;;31.92;22.52;100146.41;103836;277;38791;-68
2023/07/04 11:59:46;;;;;;;8.10;5.20;;;;;;;31.78;22.42;100149.71;103956;277;38667;-68
2023/07/04 12:02:37;;;;;;;10.80;5.50;;;;;;;31.58;22.57;100140.95;103907;277;38958;-68
2023/07/04 12:05:33;;;;;;;8.50;5.30;;;;;;;31.44;22.80;100138.80;103886;277;38258;-70
2023/07/04 12:08:08;;;;;;;10.60;6.30;;;;;;;31.41;23.19;100136.20;103853;278;38458;-70
2023/07/04 12:10:45;;;;;;;33.00;26.50;;;;;;;31.40;23.54;100132.73;103811;278;38551;-68
2023/07/04 12:13:22;;;;;;;9.10;7.90;;;;;;;31.37;23.04;100132.14;103872;277;39443;-67